Terminal Aerodrome Forecast
Issued by NWS

Current Version | Previous Version | Text Only | Print | Product List | Glossary On
Versions: 1 2 3 4 5 6 7 8 9 10 11 12 13 14 15 16 17 18 19 20 21 22 23 24
000
FTUS42 KGSP 280520
TAFAND
TAF
KAND 280520Z 2806/0106 05008KT P6SM SCT250
     FM280900 06008KT P6SM BKN030
     FM281300 06009KT P6SM BKN050
     FM010300 06009KT P6SM BKN030=

USA.gov is the U.S. government's official web portal to all federal, state and local government web resources and services.